createdAt,value
2023-10-06T00:00:49.458Z,10.91
2023-10-06T00:03:17.574Z,10.84
2023-10-06T00:05:45.716Z,10.78
2023-10-06T00:08:16.741Z,10.73
2023-10-06T00:10:53.192Z,10.68
2023-10-06T00:13:25.058Z,10.64
2023-10-06T00:15:52.718Z,10.62
2023-10-06T00:18:21.451Z,10.58
2023-10-06T00:20:57.065Z,10.52
2023-10-06T00:23:28.539Z,10.47
2023-10-06T00:25:56.780Z,10.42
2023-10-06T00:28:28.181Z,10.37
2023-10-06T00:31:02.705Z,10.34
2023-10-06T00:33:38.745Z,10.33
2023-10-06T00:36:19.932Z,10.30
2023-10-06T00:38:57.346Z,10.26
2023-10-06T00:41:28.048Z,10.22
2023-10-06T00:43:56.647Z,10.19
2023-10-06T00:46:25.055Z,10.18
2023-10-06T00:48:57.605Z,10.16
2023-10-06T00:51:27.329Z,10.13
2023-10-06T00:53:58.998Z,10.11
2023-10-06T00:56:29.006Z,10.08
2023-10-06T00:58:57.261Z,10.08
2023-10-06T01:01:25.088Z,10.08
2023-10-06T01:04:11.298Z,10.07
2023-10-06T01:06:40.556Z,10.04
2023-10-06T01:09:15.065Z,10.02
2023-10-06T01:11:53.036Z,10.01
2023-10-06T01:14:27.584Z,10.00
2023-10-06T01:17:05.750Z,10.01
2023-10-06T01:19:36.768Z,10.00
2023-10-06T01:22:26.063Z,9.99
2023-10-06T01:24:56.660Z,9.97
2023-10-06T01:27:27.674Z,9.96
2023-10-06T01:30:16.030Z,9.95
2023-10-06T01:32:46.960Z,9.95
2023-10-06T01:35:14.850Z,9.95
2023-10-06T01:37:46.238Z,9.96
2023-10-06T01:40:20.176Z,9.97
2023-10-06T01:42:49.634Z,9.96
2023-10-06T01:45:20.547Z,9.95
2023-10-06T01:47:58.159Z,9.93
2023-10-06T01:50:28.817Z,9.93
2023-10-06T01:53:00.089Z,9.90
2023-10-06T01:55:28.038Z,9.87
2023-10-06T01:57:55.656Z,9.84
2023-10-06T02:00:28.181Z,9.81
2023-10-06T02:02:55.878Z,9.78
2023-10-06T02:05:23.458Z,9.73
2023-10-06T02:07:52.919Z,9.68
2023-10-06T02:10:20.486Z,9.62
2023-10-06T02:12:48.120Z,9.57
2023-10-06T02:15:16.197Z,9.54
2023-10-06T02:17:44.370Z,9.50
2023-10-06T02:20:27.117Z,9.48
2023-10-06T02:23:01.073Z,9.49
2023-10-06T02:25:33.091Z,9.52
2023-10-06T02:28:06.293Z,9.53
2023-10-06T02:30:38.942Z,9.55
2023-10-06T02:33:06.810Z,9.57
2023-10-06T02:35:41.565Z,9.58
2023-10-06T02:38:09.688Z,9.57
2023-10-06T02:40:46.498Z,9.57
2023-10-06T02:43:21.963Z,9.59
2023-10-06T02:45:49.652Z,9.60
2023-10-06T02:50:08.798Z,9.66
2023-10-06T02:52:43.321Z,9.71
2023-10-06T02:55:12.164Z,9.79
2023-10-06T02:57:40.311Z,9.83
2023-10-06T03:00:26.600Z,9.84
2023-10-06T03:03:04.472Z,9.86
2023-10-06T03:05:40.230Z,9.87
2023-10-06T03:08:10.896Z,9.87
2023-10-06T03:10:45.988Z,9.85
2023-10-06T03:13:17.483Z,9.84
2023-10-06T03:15:48.303Z,9.83
2023-10-06T03:18:17.849Z,9.83
2023-10-06T03:20:49.282Z,9.81
2023-10-06T03:23:39.146Z,9.78
2023-10-06T03:26:14.952Z,9.76
2023-10-06T03:28:49.964Z,9.77
2023-10-06T03:31:20.449Z,9.76
2023-10-06T03:33:53.610Z,9.77
2023-10-06T03:36:50.368Z,9.80
2023-10-06T03:39:24.164Z,9.85
2023-10-06T03:41:54.125Z,9.88
2023-10-06T03:44:27.386Z,9.92
2023-10-06T03:46:56.763Z,9.97
2023-10-06T03:49:27.335Z,10.05
2023-10-06T03:51:57.405Z,10.13
2023-10-06T03:54:27.836Z,10.21
2023-10-06T03:56:55.433Z,10.26
2023-10-06T03:59:24.874Z,10.27
2023-10-06T04:01:53.248Z,10.24
2023-10-06T04:04:24.113Z,10.23
2023-10-06T04:06:52.120Z,10.23
2023-10-06T04:09:29.874Z,10.23
2023-10-06T04:12:02.802Z,10.26
2023-10-06T04:14:33.191Z,10.28
2023-10-06T04:17:02.860Z,10.31
2023-10-06T04:19:30.627Z,10.34
2023-10-06T04:21:58.281Z,10.40
2023-10-06T04:24:25.822Z,10.48
2023-10-06T04:26:53.449Z,10.56
2023-10-06T04:29:21.001Z,10.63
2023-10-06T04:31:49.176Z,10.71
2023-10-06T04:34:16.898Z,10.79
2023-10-06T04:36:44.456Z,10.89
2023-10-06T04:39:17.327Z,10.96
2023-10-06T04:41:44.927Z,11.03
2023-10-06T04:44:12.581Z,11.11
2023-10-06T04:46:41.174Z,11.17
2023-10-06T04:49:09.189Z,11.14
2023-10-06T04:51:36.910Z,11.07
2023-10-06T04:54:09.371Z,11.01
2023-10-06T04:56:37.237Z,11.01
2023-10-06T04:59:07.298Z,10.99
2023-10-06T05:01:35.382Z,10.96
2023-10-06T05:04:07.538Z,10.93
2023-10-06T05:06:35.168Z,10.92
2023-10-06T05:09:04.077Z,10.92
2023-10-06T05:11:34.189Z,10.91
2023-10-06T05:14:02.762Z,10.92
2023-10-06T05:16:30.653Z,10.94
2023-10-06T05:18:58.364Z,10.95
2023-10-06T05:21:26.029Z,10.92
2023-10-06T05:23:54.681Z,10.86
2023-10-06T05:26:22.660Z,10.83
2023-10-06T05:28:52.081Z,10.83
2023-10-06T05:31:19.973Z,10.87
2023-10-06T05:33:47.826Z,10.92
2023-10-06T05:36:19.309Z,11.01
2023-10-06T05:38:49.022Z,11.13
2023-10-06T05:41:16.986Z,11.25
2023-10-06T05:43:44.902Z,11.43
2023-10-06T05:46:13.034Z,11.66
2023-10-06T05:48:41.562Z,12.00
2023-10-06T05:51:16.445Z,12.35
2023-10-06T05:53:45.539Z,12.56
2023-10-06T05:56:13.902Z,12.64
2023-10-06T05:58:42.536Z,12.77
2023-10-06T06:01:20.414Z,13.07
2023-10-06T06:03:49.001Z,13.68
2023-10-06T06:06:18.185Z,14.29
2023-10-06T06:08:49.671Z,14.79
2023-10-06T06:11:17.787Z,15.15
2023-10-06T06:13:52.779Z,15.46
2023-10-06T06:16:27.000Z,15.53
2023-10-06T06:18:54.636Z,15.37
2023-10-06T06:21:26.535Z,15.21
2023-10-06T06:23:57.355Z,15.03
2023-10-06T06:26:25.545Z,14.88
2023-10-06T06:28:54.526Z,14.87
2023-10-06T06:31:22.614Z,15.03
2023-10-06T06:33:58.644Z,15.10
2023-10-06T06:36:27.925Z,15.10
2023-10-06T06:38:55.732Z,15.08
2023-10-06T06:41:23.539Z,15.00
2023-10-06T06:43:55.972Z,14.99
2023-10-06T06:46:23.576Z,15.29
2023-10-06T06:48:51.158Z,15.80
2023-10-06T06:51:19.943Z,16.28
2023-10-06T06:53:48.790Z,16.57
2023-10-06T06:56:18.517Z,16.61
2023-10-06T06:58:47.874Z,16.47
2023-10-06T07:01:17.427Z,16.26
2023-10-06T07:03:45.185Z,16.06
2023-10-06T07:06:18.001Z,15.99
2023-10-06T07:08:46.746Z,16.15
2023-10-06T07:11:14.633Z,16.64
2023-10-06T07:13:43.670Z,17.11
2023-10-06T07:16:11.492Z,17.41
2023-10-06T07:18:39.365Z,17.71
2023-10-06T07:21:10.650Z,18.13
2023-10-06T07:23:41.211Z,18.90
2023-10-06T07:26:12.609Z,19.95
2023-10-06T07:28:41.447Z,20.76
2023-10-06T07:31:14.022Z,21.27
2023-10-06T07:33:42.852Z,21.92
2023-10-06T07:36:19.054Z,22.71
2023-10-06T07:38:47.482Z,23.53
2023-10-06T07:41:19.393Z,24.39
2023-10-06T07:43:49.965Z,24.89
2023-10-06T07:46:18.234Z,24.88
2023-10-06T07:48:47.407Z,24.59
2023-10-06T07:51:15.255Z,24.27
2023-10-06T07:53:45.197Z,23.94
2023-10-06T07:56:13.352Z,23.69
2023-10-06T07:58:44.811Z,23.59
2023-10-06T08:01:14.824Z,23.24
2023-10-06T08:03:42.939Z,22.66
2023-10-06T08:06:12.309Z,22.07
2023-10-06T08:08:40.026Z,21.61
2023-10-06T08:11:08.026Z,21.28
2023-10-06T08:13:36.274Z,20.99
2023-10-06T08:16:04.352Z,20.71
2023-10-06T08:18:31.958Z,20.41
2023-10-06T08:21:02.489Z,20.14
2023-10-06T08:23:33.825Z,19.94
2023-10-06T08:26:02.996Z,19.76
2023-10-06T08:28:33.200Z,19.58
2023-10-06T08:31:04.954Z,19.38
2023-10-06T08:33:33.485Z,19.20
2023-10-06T08:36:03.144Z,18.98
2023-10-06T08:38:32.253Z,18.79
2023-10-06T08:41:02.695Z,18.76
2023-10-06T08:43:30.873Z,18.78
2023-10-06T08:46:01.344Z,18.83
2023-10-06T08:48:33.356Z,18.85
2023-10-06T08:51:04.694Z,18.86
2023-10-06T08:53:32.738Z,18.89
2023-10-06T08:56:00.612Z,18.92
2023-10-06T08:58:28.481Z,18.97
2023-10-06T09:00:57.338Z,19.11
2023-10-06T09:03:28.213Z,19.28
2023-10-06T09:05:56.679Z,19.53
2023-10-06T09:08:25.205Z,19.86
2023-10-06T09:10:53.154Z,20.24
2023-10-06T09:13:22.189Z,20.58
2023-10-06T09:15:57.937Z,20.86
2023-10-06T09:18:29.064Z,21.21
2023-10-06T09:21:21.373Z,21.71
2023-10-06T09:23:50.644Z,22.36
2023-10-06T09:26:29.471Z,22.66
2023-10-06T09:28:57.611Z,22.69
2023-10-06T09:31:38.432Z,22.58
2023-10-06T09:34:10.114Z,22.45
2023-10-06T09:36:44.852Z,22.28
2023-10-06T09:39:18.968Z,22.20
2023-10-06T09:41:49.266Z,22.19
2023-10-06T09:44:19.484Z,22.23
2023-10-06T09:46:47.425Z,22.23
2023-10-06T09:49:19.776Z,22.44
2023-10-06T09:51:47.571Z,22.67
2023-10-06T09:54:16.056Z,22.73
2023-10-06T09:56:44.024Z,22.66
2023-10-06T09:59:15.300Z,22.47
2023-10-06T10:01:49.215Z,22.47
2023-10-06T10:04:17.112Z,22.91
2023-10-06T10:06:45.763Z,23.48
2023-10-06T10:09:18.431Z,23.88
2023-10-06T10:11:57.699Z,24.09
2023-10-06T10:14:56.425Z,24.30
2023-10-06T10:17:36.900Z,24.70
2023-10-06T10:20:10.676Z,25.04
2023-10-06T10:22:42.100Z,25.28
2023-10-06T10:27:41.291Z,25.62
2023-10-06T10:30:13.897Z,25.84
2023-10-06T10:32:43.165Z,26.06
2023-10-06T10:35:14.850Z,26.28
2023-10-06T10:37:57.331Z,26.49
2023-10-06T10:40:30.082Z,26.67
2023-10-06T10:43:07.704Z,26.71
2023-10-06T10:45:45.014Z,26.75
2023-10-06T10:48:16.961Z,26.72
2023-10-06T10:51:04.469Z,26.51
2023-10-06T10:53:45.277Z,26.21
2023-10-06T10:56:16.314Z,26.05
2023-10-06T10:58:45.402Z,25.88
2023-10-06T11:01:31.358Z,25.56
2023-10-06T11:04:14.456Z,25.16
2023-10-06T11:06:44.217Z,24.74
2023-10-06T11:09:27.997Z,24.53
2023-10-06T11:12:11.750Z,24.54
2023-10-06T11:14:44.837Z,24.37
2023-10-06T11:17:13.459Z,24.00
2023-10-06T11:19:41.407Z,23.59
2023-10-06T11:22:13.154Z,23.28
2023-10-06T11:24:41.461Z,23.13
2023-10-06T11:27:13.399Z,23.00
2023-10-06T11:29:41.101Z,22.86
2023-10-06T11:32:09.006Z,22.89
2023-10-06T11:34:36.840Z,22.99
2023-10-06T11:37:06.394Z,23.00
2023-10-06T11:39:33.994Z,22.92
2023-10-06T11:42:26.670Z,22.80
2023-10-06T11:44:54.635Z,22.61
2023-10-06T11:47:36.947Z,22.45
2023-10-06T11:50:07.036Z,22.29
2023-10-06T11:52:34.853Z,21.98
2023-10-06T11:55:09.915Z,21.74
2023-10-06T11:57:47.515Z,21.61
2023-10-06T12:00:18.773Z,21.52
2023-10-06T12:02:52.929Z,21.36
2023-10-06T12:05:23.079Z,21.22
2023-10-06T12:07:53.760Z,21.19
2023-10-06T12:10:22.588Z,21.18
2023-10-06T12:12:53.439Z,21.15
2023-10-06T12:15:21.818Z,21.08
2023-10-06T12:17:51.963Z,20.99
2023-10-06T12:20:20.398Z,20.87
2023-10-06T12:22:48.411Z,20.80
2023-10-06T12:25:23.699Z,20.81
2023-10-06T12:27:51.625Z,20.83
2023-10-06T12:30:19.449Z,20.82
2023-10-06T12:32:47.329Z,20.77
2023-10-06T12:35:20.076Z,20.63
2023-10-06T12:37:48.116Z,20.47
2023-10-06T12:40:16.737Z,20.36
2023-10-06T12:42:44.780Z,20.40
2023-10-06T12:45:22.073Z,20.49
2023-10-06T12:47:50.308Z,20.49
2023-10-06T12:50:20.230Z,20.41
2023-10-06T12:52:54.270Z,20.37
2023-10-06T12:55:28.725Z,20.31
2023-10-06T12:57:56.385Z,20.26
2023-10-06T13:00:24.046Z,20.17
2023-10-06T13:02:52.051Z,20.02
2023-10-06T13:05:24.494Z,19.91
2023-10-06T13:07:52.987Z,19.85
2023-10-06T13:10:24.310Z,19.80
2023-10-06T13:12:52.246Z,19.78
2023-10-06T13:15:20.801Z,19.79
2023-10-06T13:17:51.788Z,19.80
2023-10-06T13:20:19.622Z,19.77
2023-10-06T13:22:50.852Z,19.67
2023-10-06T13:25:19.416Z,19.56
2023-10-06T13:27:49.190Z,19.49
2023-10-06T13:30:20.406Z,19.47
2023-10-06T13:32:53.186Z,19.43
2023-10-06T13:35:21.448Z,19.36
2023-10-06T13:37:49.700Z,19.29
2023-10-06T13:40:18.919Z,19.24
2023-10-06T13:42:50.109Z,19.18
2023-10-06T13:45:24.730Z,19.10
2023-10-06T13:47:56.292Z,19.01
2023-10-06T13:50:26.873Z,18.91
2023-10-06T13:52:54.650Z,18.83
2023-10-06T13:55:23.650Z,18.77
2023-10-06T13:57:56.488Z,18.74
2023-10-06T14:00:30.967Z,18.67
2023-10-06T14:03:08.490Z,18.58
2023-10-06T14:05:39.849Z,18.44
2023-10-06T14:08:08.162Z,18.30
2023-10-06T14:10:38.823Z,18.15
2023-10-06T14:13:10.017Z,18.02
2023-10-06T14:15:46.873Z,17.89
2023-10-06T14:18:15.485Z,17.78
2023-10-06T14:20:47.587Z,17.68
2023-10-06T14:23:16.112Z,17.60
2023-10-06T14:25:44.289Z,17.53
2023-10-06T14:28:12.019Z,17.44
2023-10-06T14:30:44.003Z,17.34
2023-10-06T14:33:24.153Z,17.25
2023-10-06T14:36:01.972Z,17.16
2023-10-06T14:38:34.143Z,17.07
2023-10-06T14:41:23.425Z,16.99
2023-10-06T14:44:10.954Z,16.90
2023-10-06T14:46:40.619Z,16.81
2023-10-06T14:49:15.217Z,16.75
2023-10-06T14:51:43.585Z,16.66
2023-10-06T14:54:12.510Z,16.56
2023-10-06T14:56:41.005Z,16.45
2023-10-06T14:59:11.872Z,16.35
2023-10-06T15:01:41.778Z,16.25
2023-10-06T15:04:14.585Z,16.15
2023-10-06T15:07:03.045Z,16.04
2023-10-06T15:09:31.857Z,15.94
2023-10-06T15:11:59.573Z,15.86
2023-10-06T15:14:27.555Z,15.76
2023-10-06T15:16:55.545Z,15.67
2023-10-06T15:19:26.753Z,15.59
2023-10-06T15:21:56.499Z,15.51
2023-10-06T15:24:24.384Z,15.44
2023-10-06T15:26:52.658Z,15.36
2023-10-06T15:29:26.392Z,15.30
2023-10-06T15:31:54.110Z,15.23
2023-10-06T15:34:21.748Z,15.17
2023-10-06T15:36:49.315Z,15.12
2023-10-06T15:39:20.260Z,15.05
2023-10-06T15:41:50.162Z,14.99
2023-10-06T15:44:18.937Z,14.95
2023-10-06T15:46:46.957Z,14.89
2023-10-06T15:49:17.391Z,14.84
2023-10-06T15:51:48.580Z,14.81
2023-10-06T15:54:17.518Z,14.76
2023-10-06T15:56:47.647Z,14.70
2023-10-06T15:59:16.623Z,14.64
2023-10-06T16:01:45.870Z,14.58
2023-10-06T16:04:15.900Z,14.52
2023-10-06T16:06:44.748Z,14.48
2023-10-06T16:09:17.808Z,14.42
2023-10-06T16:11:46.418Z,14.39
2023-10-06T16:14:17.410Z,14.36
2023-10-06T16:16:47.737Z,14.34
2023-10-06T16:19:16.032Z,14.32
2023-10-06T16:21:43.855Z,14.27
2023-10-06T16:24:13.686Z,14.24
2023-10-06T16:26:42.326Z,14.21
2023-10-06T16:29:11.495Z,14.20
2023-10-06T16:31:39.821Z,14.18
2023-10-06T16:34:07.828Z,14.16
2023-10-06T16:36:36.354Z,14.12
2023-10-06T16:39:17.612Z,14.08
2023-10-06T16:41:46.160Z,14.05
2023-10-06T16:44:14.704Z,13.99
2023-10-06T16:46:42.742Z,13.94
2023-10-06T16:49:10.807Z,13.91
2023-10-06T16:51:40.838Z,13.89
2023-10-06T16:54:11.530Z,13.86
2023-10-06T16:56:39.471Z,13.82
2023-10-06T16:59:07.609Z,13.76
2023-10-06T17:01:36.120Z,13.73
2023-10-06T17:04:07.734Z,13.69
2023-10-06T17:06:36.755Z,13.66
2023-10-06T17:09:15.481Z,13.62
2023-10-06T17:11:44.460Z,13.59
2023-10-06T17:14:13.306Z,13.57
2023-10-06T17:16:43.000Z,13.57
2023-10-06T17:19:13.544Z,13.57
2023-10-06T17:21:43.842Z,13.55
2023-10-06T17:24:12.527Z,13.52
2023-10-06T17:26:40.500Z,13.51
2023-10-06T17:29:08.725Z,13.47
2023-10-06T17:31:36.774Z,13.44
2023-10-06T17:34:05.898Z,13.40
2023-10-06T17:36:33.685Z,13.37
2023-10-06T17:39:03.567Z,13.33
2023-10-06T17:41:31.499Z,13.29
2023-10-06T17:43:59.243Z,13.25
2023-10-06T17:46:27.150Z,13.23
2023-10-06T17:48:55.115Z,13.18
2023-10-06T17:51:22.904Z,13.15
2023-10-06T17:53:50.989Z,13.10
2023-10-06T17:56:21.400Z,13.06
2023-10-06T17:58:51.333Z,13.01
2023-10-06T18:01:20.279Z,12.97
2023-10-06T18:03:49.117Z,12.92
2023-10-06T18:06:18.658Z,12.89
2023-10-06T18:08:46.716Z,12.85
2023-10-06T18:11:15.739Z,12.82
2023-10-06T18:13:43.861Z,12.77
2023-10-06T18:16:11.553Z,12.73
2023-10-06T18:18:39.395Z,12.68
2023-10-06T18:21:07.112Z,12.62
2023-10-06T18:23:34.986Z,12.56
2023-10-06T18:26:02.620Z,12.50
2023-10-06T18:28:30.330Z,12.46
2023-10-06T18:30:58.011Z,12.42
2023-10-06T18:33:26.052Z,12.36
2023-10-06T18:35:53.661Z,12.32
2023-10-06T18:38:21.350Z,12.29
2023-10-06T18:40:59.918Z,12.27
2023-10-06T18:43:27.768Z,12.23
2023-10-06T18:45:57.148Z,12.20
2023-10-06T18:48:25.062Z,12.17
2023-10-06T18:50:57.007Z,12.14
2023-10-06T18:53:25.135Z,12.13
2023-10-06T18:55:53.805Z,12.09
2023-10-06T18:58:21.751Z,12.07
2023-10-06T19:00:50.044Z,12.04
2023-10-06T19:03:18.067Z,11.99
2023-10-06T19:05:47.931Z,11.94
2023-10-06T19:08:16.072Z,11.90
2023-10-06T19:10:47.274Z,11.85
2023-10-06T19:13:15.447Z,11.82
2023-10-06T19:15:43.710Z,11.79
2023-10-06T19:18:11.432Z,11.75
2023-10-06T19:20:40.069Z,11.72
2023-10-06T19:23:11.013Z,11.68
2023-10-06T19:25:43.379Z,11.65
2023-10-06T19:28:12.086Z,11.61
2023-10-06T19:30:40.029Z,11.56
2023-10-06T19:33:08.053Z,11.51
2023-10-06T19:35:39.598Z,11.47
2023-10-06T19:38:09.018Z,11.42
2023-10-06T19:40:36.819Z,11.38
2023-10-06T19:43:04.809Z,11.34
2023-10-06T19:45:32.514Z,11.30
2023-10-06T19:48:00.181Z,11.25
2023-10-06T19:50:27.918Z,11.21
2023-10-06T19:52:55.490Z,11.18
2023-10-06T19:55:23.323Z,11.16
2023-10-06T19:57:50.887Z,11.13
2023-10-06T20:00:27.485Z,11.10
2023-10-06T20:02:57.011Z,11.07
2023-10-06T20:05:26.850Z,11.02
2023-10-06T20:07:54.538Z,10.99
2023-10-06T20:10:23.211Z,10.96
2023-10-06T20:12:52.719Z,10.93
2023-10-06T20:15:20.583Z,10.89
2023-10-06T20:17:48.325Z,10.87
2023-10-06T20:20:21.840Z,10.83
2023-10-06T20:22:51.566Z,10.80
2023-10-06T20:25:21.023Z,10.75
2023-10-06T20:27:48.852Z,10.72
2023-10-06T20:30:23.348Z,10.68
2023-10-06T20:32:55.592Z,10.63
2023-10-06T20:35:24.010Z,10.59
2023-10-06T20:37:51.813Z,10.56
2023-10-06T20:40:25.889Z,10.52
2023-10-06T20:42:57.020Z,10.48
2023-10-06T20:45:28.254Z,10.45
2023-10-06T20:47:56.723Z,10.43
2023-10-06T20:50:28.536Z,10.39
2023-10-06T20:52:57.125Z,10.36
2023-10-06T20:55:25.398Z,10.33
2023-10-06T20:57:54.040Z,10.30
2023-10-06T21:00:24.567Z,10.27
2023-10-06T21:02:52.509Z,10.23
2023-10-06T21:05:21.160Z,10.19
2023-10-06T21:07:49.804Z,10.15
2023-10-06T21:10:18.857Z,10.11
2023-10-06T21:12:46.864Z,10.08
2023-10-06T21:15:15.985Z,10.04
2023-10-06T21:17:44.235Z,10.01
2023-10-06T21:20:13.829Z,9.99
2023-10-06T21:22:41.593Z,9.96
2023-10-06T21:25:15.199Z,9.92
2023-10-06T21:27:43.201Z,9.88
2023-10-06T21:30:17.257Z,9.88
2023-10-06T21:32:46.121Z,9.88
2023-10-06T21:35:15.424Z,9.90
2023-10-06T21:37:43.817Z,9.90
2023-10-06T21:40:13.234Z,9.89
2023-10-06T21:42:43.830Z,9.85
2023-10-06T21:45:12.007Z,9.81
2023-10-06T21:47:39.724Z,9.75
2023-10-06T21:50:07.639Z,9.67
2023-10-06T21:52:35.233Z,9.61
2023-10-06T21:55:03.589Z,9.54
2023-10-06T21:57:36.192Z,9.48
2023-10-06T22:00:12.543Z,9.42
2023-10-06T22:02:40.259Z,9.35
2023-10-06T22:05:08.197Z,9.27
2023-10-06T22:07:35.904Z,9.19
2023-10-06T22:10:04.006Z,9.12
2023-10-06T22:12:31.520Z,9.06
2023-10-06T22:14:59.357Z,9.00
2023-10-06T22:17:27.002Z,8.94
2023-10-06T22:19:54.809Z,8.87
2023-10-06T22:22:22.823Z,8.81
2023-10-06T22:24:50.518Z,8.75
2023-10-06T22:27:18.331Z,8.69
2023-10-06T22:29:46.859Z,8.63
2023-10-06T22:32:15.588Z,8.57
2023-10-06T22:34:43.276Z,8.52
2023-10-06T22:37:19.102Z,8.46
2023-10-06T22:39:47.793Z,8.42
2023-10-06T22:42:15.357Z,8.37
2023-10-06T22:44:42.916Z,8.32
2023-10-06T22:47:10.571Z,8.26
2023-10-06T22:49:38.190Z,8.21
2023-10-06T22:52:05.794Z,8.14
2023-10-06T22:54:34.360Z,8.08
2023-10-06T22:57:02.015Z,8.02
2023-10-06T22:59:29.585Z,7.97
2023-10-06T23:01:57.306Z,7.91
2023-10-06T23:04:24.987Z,7.87
2023-10-06T23:06:52.556Z,7.84
2023-10-06T23:09:20.097Z,7.82
2023-10-06T23:11:47.779Z,7.79
2023-10-06T23:14:16.150Z,7.78
2023-10-06T23:16:46.759Z,7.76
2023-10-06T23:19:15.063Z,7.74
2023-10-06T23:21:42.953Z,7.73
2023-10-06T23:24:16.014Z,7.72
2023-10-06T23:26:44.626Z,7.70
2023-10-06T23:29:13.736Z,7.68
2023-10-06T23:31:41.728Z,7.66
2023-10-06T23:34:10.733Z,7.66
2023-10-06T23:36:38.467Z,7.64
2023-10-06T23:39:09.991Z,7.62
2023-10-06T23:41:38.575Z,7.61
2023-10-06T23:44:08.942Z,7.60
2023-10-06T23:46:36.797Z,7.58
2023-10-06T23:49:04.630Z,7.58
2023-10-06T23:51:33.891Z,7.58
2023-10-06T23:54:01.537Z,7.55
2023-10-06T23:56:32.507Z,7.54
2023-10-06T23:59:00.425Z,7.52
